sensor_id;sensor_type;location;lat;lon;timestamp;temperature;humidity
74359;DHT22;62792;46.236;6.040;2023-09-30T00:04:59;24.40;63.00
74359;DHT22;62792;46.236;6.040;2023-09-30T00:10:01;24.40;63.00
74359;DHT22;62792;46.236;6.040;2023-09-30T00:15:06;24.40;63.20
74359;DHT22;62792;46.236;6.040;2023-09-30T00:20:10;24.40;63.20
74359;DHT22;62792;46.236;6.040;2023-09-30T00:25:15;24.40;63.10
74359;DHT22;62792;46.236;6.040;2023-09-30T00:30:19;24.40;63.20
74359;DHT22;62792;46.236;6.040;2023-09-30T00:35:23;24.40;63.00
74359;DHT22;62792;46.236;6.040;2023-09-30T00:40:27;24.30;63.20
74359;DHT22;62792;46.236;6.040;2023-09-30T00:45:31;24.40;63.00
74359;DHT22;62792;46.236;6.040;2023-09-30T00:50:34;24.40;63.20
74359;DHT22;62792;46.236;6.040;2023-09-30T00:55:37;24.40;63.20
74359;DHT22;62792;46.236;6.040;2023-09-30T01:00:41;24.30;63.30
74359;DHT22;62792;46.236;6.040;2023-09-30T01:05:45;24.30;63.10
74359;DHT22;62792;46.236;6.040;2023-09-30T01:10:48;24.30;63.20
74359;DHT22;62792;46.236;6.040;2023-09-30T01:15:52;24.40;63.30
74359;DHT22;62792;46.236;6.040;2023-09-30T01:20:55;24.30;63.10
74359;DHT22;62792;46.236;6.040;2023-09-30T01:26:02;24.30;63.50
74359;DHT22;62792;46.236;6.040;2023-09-30T01:31:06;24.40;63.40
74359;DHT22;62792;46.236;6.040;2023-09-30T01:36:09;24.20;63.20
74359;DHT22;62792;46.236;6.040;2023-09-30T01:41:14;24.30;63.40
74359;DHT22;62792;46.236;6.040;2023-09-30T01:46:18;24.30;63.30
74359;DHT22;62792;46.236;6.040;2023-09-30T01:51:21;24.30;63.40
74359;DHT22;62792;46.236;6.040;2023-09-30T01:56:26;24.30;63.20
74359;DHT22;62792;46.236;6.040;2023-09-30T02:01:29;24.30;63.40
74359;DHT22;62792;46.236;6.040;2023-09-30T02:06:32;24.30;63.40
74359;DHT22;62792;46.236;6.040;2023-09-30T02:11:37;24.30;63.50
74359;DHT22;62792;46.236;6.040;2023-09-30T02:16:42;24.20;63.70
74359;DHT22;62792;46.236;6.040;2023-09-30T02:21:45;24.30;63.30
74359;DHT22;62792;46.236;6.040;2023-09-30T02:26:50;24.30;63.50
74359;DHT22;62792;46.236;6.040;2023-09-30T02:31:53;24.30;63.50
74359;DHT22;62792;46.236;6.040;2023-09-30T02:36:57;24.30;63.40
74359;DHT22;62792;46.236;6.040;2023-09-30T02:42:02;24.30;63.50
74359;DHT22;62792;46.236;6.040;2023-09-30T02:47:06;24.20;63.50
74359;DHT22;62792;46.236;6.040;2023-09-30T02:52:10;24.20;63.60
74359;DHT22;62792;46.236;6.040;2023-09-30T02:57:15;24.30;63.50
74359;DHT22;62792;46.236;6.040;2023-09-30T03:02:18;24.30;63.50
74359;DHT22;62792;46.236;6.040;2023-09-30T03:07:22;24.20;63.60
74359;DHT22;62792;46.236;6.040;2023-09-30T03:12:27;24.30;63.70
74359;DHT22;62792;46.236;6.040;2023-09-30T03:17:31;24.20;63.70
74359;DHT22;62792;46.236;6.040;2023-09-30T03:22:36;24.30;63.60
74359;DHT22;62792;46.236;6.040;2023-09-30T03:27:40;24.20;63.70
74359;DHT22;62792;46.236;6.040;2023-09-30T03:32:43;24.30;63.70
74359;DHT22;62792;46.236;6.040;2023-09-30T03:37:46;24.30;63.40
74359;DHT22;62792;46.236;6.040;2023-09-30T03:42:51;24.20;63.70
74359;DHT22;62792;46.236;6.040;2023-09-30T03:47:53;24.20;63.50
74359;DHT22;62792;46.236;6.040;2023-09-30T03:53:00;24.20;63.70
74359;DHT22;62792;46.236;6.040;2023-09-30T03:58:05;24.20;63.60
74359;DHT22;62792;46.236;6.040;2023-09-30T04:03:08;24.20;63.50
74359;DHT22;62792;46.236;6.040;2023-09-30T04:08:11;24.20;63.50
74359;DHT22;62792;46.236;6.040;2023-09-30T04:13:17;24.20;63.70
74359;DHT22;62792;46.236;6.040;2023-09-30T04:18:22;24.20;63.70
74359;DHT22;62792;46.236;6.040;2023-09-30T04:23:27;24.20;63.80
74359;DHT22;62792;46.236;6.040;2023-09-30T04:28:31;24.20;63.60
74359;DHT22;62792;46.236;6.040;2023-09-30T04:33:35;24.10;63.70
74359;DHT22;62792;46.236;6.040;2023-09-30T04:38:39;24.10;63.70
74359;DHT22;62792;46.236;6.040;2023-09-30T04:43:43;24.10;63.70
74359;DHT22;62792;46.236;6.040;2023-09-30T04:48:46;24.20;63.70
74359;DHT22;62792;46.236;6.040;2023-09-30T04:53:50;24.10;63.80
74359;DHT22;62792;46.236;6.040;2023-09-30T04:58:54;24.10;63.60
74359;DHT22;62792;46.236;6.040;2023-09-30T05:03:57;24.10;63.60
74359;DHT22;62792;46.236;6.040;2023-09-30T05:09:01;24.10;63.50
74359;DHT22;62792;46.236;6.040;2023-09-30T05:14:05;24.20;63.60
74359;DHT22;62792;46.236;6.040;2023-09-30T05:19:08;24.10;63.50
74359;DHT22;62792;46.236;6.040;2023-09-30T05:24:11;24.10;63.60
74359;DHT22;62792;46.236;6.040;2023-09-30T05:29:15;24.10;63.50
74359;DHT22;62792;46.236;6.040;2023-09-30T05:34:18;24.10;63.50
74359;DHT22;62792;46.236;6.040;2023-09-30T05:39:21;24.10;63.50
74359;DHT22;62792;46.236;6.040;2023-09-30T05:44:25;24.00;63.60
74359;DHT22;62792;46.236;6.040;2023-09-30T05:49:29;24.10;63.70
74359;DHT22;62792;46.236;6.040;2023-09-30T05:54:31;24.20;63.40
74359;DHT22;62792;46.236;6.040;2023-09-30T05:59:37;24.10;63.40
74359;DHT22;62792;46.236;6.040;2023-09-30T06:04:41;24.10;63.20
74359;DHT22;62792;46.236;6.040;2023-09-30T06:09:44;24.10;63.30
74359;DHT22;62792;46.236;6.040;2023-09-30T06:14:48;24.10;63.40
74359;DHT22;62792;46.236;6.040;2023-09-30T06:19:51;24.10;63.10
74359;DHT22;62792;46.236;6.040;2023-09-30T06:24:54;24.10;63.10
74359;DHT22;62792;46.236;6.040;2023-09-30T06:29:58;24.10;63.20
74359;DHT22;62792;46.236;6.040;2023-09-30T06:35:01;24.00;63.20
74359;DHT22;62792;46.236;6.040;2023-09-30T06:40:05;24.10;63.30
74359;DHT22;62792;46.236;6.040;2023-09-30T06:45:11;24.10;63.00
74359;DHT22;62792;46.236;6.040;2023-09-30T06:50:14;24.10;63.10
74359;DHT22;62792;46.236;6.040;2023-09-30T06:55:19;24.10;63.10
74359;DHT22;62792;46.236;6.040;2023-09-30T07:00:23;24.10;63.00
74359;DHT22;62792;46.236;6.040;2023-09-30T07:05:27;24.20;62.90
74359;DHT22;62792;46.236;6.040;2023-09-30T07:10:30;24.20;62.90
74359;DHT22;62792;46.236;6.040;2023-09-30T07:15:35;24.10;62.90
74359;DHT22;62792;46.236;6.040;2023-09-30T07:20:38;24.10;62.90
74359;DHT22;62792;46.236;6.040;2023-09-30T07:25:41;24.10;63.00
74359;DHT22;62792;46.236;6.040;2023-09-30T07:30:45;24.20;62.80
74359;DHT22;62792;46.236;6.040;2023-09-30T07:35:48;24.20;62.70
74359;DHT22;62792;46.236;6.040;2023-09-30T07:40:51;24.20;62.80
74359;DHT22;62792;46.236;6.040;2023-09-30T07:45:55;24.20;62.90
74359;DHT22;62792;46.236;6.040;2023-09-30T07:51:00;24.20;62.80
74359;DHT22;62792;46.236;6.040;2023-09-30T07:56:04;24.20;62.60
74359;DHT22;62792;46.236;6.040;2023-09-30T08:01:09;24.30;62.90
74359;DHT22;62792;46.236;6.040;2023-09-30T08:06:12;24.20;62.70
74359;DHT22;62792;46.236;6.040;2023-09-30T08:11:15;24.20;62.70
74359;DHT22;62792;46.236;6.040;2023-09-30T08:16:19;24.20;62.80
74359;DHT22;62792;46.236;6.040;2023-09-30T08:21:22;24.20;62.60
74359;DHT22;62792;46.236;6.040;2023-09-30T08:26:25;24.30;62.60
74359;DHT22;62792;46.236;6.040;2023-09-30T08:31:30;24.30;62.80
74359;DHT22;62792;46.236;6.040;2023-09-30T08:36:32;24.30;62.60
74359;DHT22;62792;46.236;6.040;2023-09-30T08:41:35;24.40;62.60
74359;DHT22;62792;46.236;6.040;2023-09-30T08:46:40;24.40;62.50
74359;DHT22;62792;46.236;6.040;2023-09-30T08:51:43;24.30;62.50
74359;DHT22;62792;46.236;6.040;2023-09-30T08:56:47;24.30;62.40
74359;DHT22;62792;46.236;6.040;2023-09-30T09:01:53;24.40;62.60
74359;DHT22;62792;46.236;6.040;2023-09-30T09:06:55;24.30;62.50
74359;DHT22;62792;46.236;6.040;2023-09-30T09:11:58;24.40;62.50
74359;DHT22;62792;46.236;6.040;2023-09-30T09:17:03;24.30;62.60
74359;DHT22;62792;46.236;6.040;2023-09-30T09:22:06;24.40;62.30
74359;DHT22;62792;46.236;6.040;2023-09-30T09:27:10;24.40;62.50
74359;DHT22;62792;46.236;6.040;2023-09-30T09:32:15;24.40;62.50
74359;DHT22;62792;46.236;6.040;2023-09-30T09:37:19;24.40;62.60
74359;DHT22;62792;46.236;6.040;2023-09-30T09:42:27;24.40;62.40
74359;DHT22;62792;46.236;6.040;2023-09-30T09:47:32;24.40;62.50
74359;DHT22;62792;46.236;6.040;2023-09-30T09:52:36;24.40;62.40
74359;DHT22;62792;46.236;6.040;2023-09-30T09:57:40;24.40;62.20
74359;DHT22;62792;46.236;6.040;2023-09-30T10:02:45;24.50;62.20
74359;DHT22;62792;46.236;6.040;2023-09-30T10:07:50;24.50;62.50
74359;DHT22;62792;46.236;6.040;2023-09-30T10:12:54;24.60;62.10
74359;DHT22;62792;46.236;6.040;2023-09-30T10:17:58;24.60;62.40
74359;DHT22;62792;46.236;6.040;2023-09-30T10:28:32;24.60;62.40
74359;DHT22;62792;46.236;6.040;2023-09-30T10:33:37;24.60;62.10
74359;DHT22;62792;46.236;6.040;2023-09-30T10:45:02;24.50;62.40
74359;DHT22;62792;46.236;6.040;2023-09-30T10:55:43;24.50;62.40
74359;DHT22;62792;46.236;6.040;2023-09-30T11:00:54;24.50;62.50
74359;DHT22;62792;46.236;6.040;2023-09-30T11:05:57;24.50;62.40
74359;DHT22;62792;46.236;6.040;2023-09-30T11:11:14;24.50;62.20
74359;DHT22;62792;46.236;6.040;2023-09-30T11:16:17;24.60;62.30
74359;DHT22;62792;46.236;6.040;2023-09-30T11:21:20;24.60;62.20
74359;DHT22;62792;46.236;6.040;2023-09-30T11:26:30;24.50;62.20
74359;DHT22;62792;46.236;6.040;2023-09-30T11:31:36;24.60;62.10
74359;DHT22;62792;46.236;6.040;2023-09-30T11:36:41;24.60;61.90
74359;DHT22;62792;46.236;6.040;2023-09-30T11:41:51;24.70;62.20
74359;DHT22;62792;46.236;6.040;2023-09-30T11:46:55;24.60;62.30
74359;DHT22;62792;46.236;6.040;2023-09-30T11:52:00;24.60;62.20
74359;DHT22;62792;46.236;6.040;2023-09-30T11:57:05;24.60;62.30
74359;DHT22;62792;46.236;6.040;2023-09-30T12:02:11;24.60;62.10
74359;DHT22;62792;46.236;6.040;2023-09-30T12:07:16;24.60;62.10
74359;DHT22;62792;46.236;6.040;2023-09-30T12:12:21;24.70;62.20
74359;DHT22;62792;46.236;6.040;2023-09-30T12:17:25;24.60;62.10
74359;DHT22;62792;46.236;6.040;2023-09-30T12:22:28;24.70;62.00
74359;DHT22;62792;46.236;6.040;2023-09-30T12:27:32;24.70;62.30
74359;DHT22;62792;46.236;6.040;2023-09-30T12:32:35;24.70;62.10
74359;DHT22;62792;46.236;6.040;2023-09-30T12:37:38;24.70;62.10
74359;DHT22;62792;46.236;6.040;2023-09-30T12:42:42;24.70;62.10
74359;DHT22;62792;46.236;6.040;2023-09-30T12:47:46;24.70;61.80
74359;DHT22;62792;46.236;6.040;2023-09-30T12:52:49;24.80;62.00
74359;DHT22;62792;46.236;6.040;2023-09-30T12:57:53;24.80;62.00
74359;DHT22;62792;46.236;6.040;2023-09-30T13:02:56;24.80;61.80
74359;DHT22;62792;46.236;6.040;2023-09-30T13:08:00;24.70;61.80
74359;DHT22;62792;46.236;6.040;2023-09-30T13:13:04;24.80;61.70
74359;DHT22;62792;46.236;6.040;2023-09-30T13:18:07;24.80;61.70
74359;DHT22;62792;46.236;6.040;2023-09-30T13:23:10;24.80;61.70
74359;DHT22;62792;46.236;6.040;2023-09-30T13:28:14;24.90;61.40
74359;DHT22;62792;46.236;6.040;2023-09-30T13:33:17;24.90;61.70
74359;DHT22;62792;46.236;6.040;2023-09-30T13:38:22;24.90;61.50
74359;DHT22;62792;46.236;6.040;2023-09-30T13:43:26;24.90;61.50
74359;DHT22;62792;46.236;6.040;2023-09-30T13:48:29;25.00;61.60
74359;DHT22;62792;46.236;6.040;2023-09-30T13:53:32;25.00;61.60
74359;DHT22;62792;46.236;6.040;2023-09-30T13:58:36;25.10;61.40
74359;DHT22;62792;46.236;6.040;2023-09-30T14:03:39;25.10;61.20
74359;DHT22;62792;46.236;6.040;2023-09-30T14:08:42;25.10;61.30
74359;DHT22;62792;46.236;6.040;2023-09-30T14:13:47;25.10;61.10
74359;DHT22;62792;46.236;6.040;2023-09-30T14:18:51;25.20;61.20
74359;DHT22;62792;46.236;6.040;2023-09-30T14:23:54;25.20;60.80
74359;DHT22;62792;46.236;6.040;2023-09-30T14:28:58;25.30;60.60
74359;DHT22;62792;46.236;6.040;2023-09-30T14:34:01;25.30;60.70
74359;DHT22;62792;46.236;6.040;2023-09-30T14:39:06;25.30;60.80
74359;DHT22;62792;46.236;6.040;2023-09-30T14:44:17;25.40;60.70
74359;DHT22;62792;46.236;6.040;2023-09-30T14:49:22;25.50;60.20
74359;DHT22;62792;46.236;6.040;2023-09-30T14:54:25;25.70;60.20
74359;DHT22;62792;46.236;6.040;2023-09-30T14:59:29;25.80;59.90
74359;DHT22;62792;46.236;6.040;2023-09-30T15:04:36;26.00;59.50
74359;DHT22;62792;46.236;6.040;2023-09-30T15:09:38;26.20;59.10
74359;DHT22;62792;46.236;6.040;2023-09-30T15:14:45;26.30;59.00
74359;DHT22;62792;46.236;6.040;2023-09-30T15:19:48;26.40;58.00
74359;DHT22;62792;46.236;6.040;2023-09-30T15:24:52;26.40;57.90
74359;DHT22;62792;46.236;6.040;2023-09-30T15:29:56;26.40;57.80
74359;DHT22;62792;46.236;6.040;2023-09-30T15:35:01;26.50;57.70
74359;DHT22;62792;46.236;6.040;2023-09-30T15:40:06;26.50;57.90
74359;DHT22;62792;46.236;6.040;2023-09-30T15:45:11;26.50;57.90
74359;DHT22;62792;46.236;6.040;2023-09-30T15:50:14;26.50;57.70
74359;DHT22;62792;46.236;6.040;2023-09-30T15:55:18;26.60;57.90
74359;DHT22;62792;46.236;6.040;2023-09-30T16:00:22;26.60;57.70
74359;DHT22;62792;46.236;6.040;2023-09-30T16:05:26;26.60;57.70
74359;DHT22;62792;46.236;6.040;2023-09-30T16:10:29;26.70;57.50
74359;DHT22;62792;46.236;6.040;2023-09-30T16:15:34;26.90;57.20
74359;DHT22;62792;46.236;6.040;2023-09-30T16:20:40;26.80;57.50
74359;DHT22;62792;46.236;6.040;2023-09-30T16:25:43;26.90;57.20
74359;DHT22;62792;46.236;6.040;2023-09-30T16:30:47;26.80;57.40
74359;DHT22;62792;46.236;6.040;2023-09-30T16:35:50;26.70;57.40
74359;DHT22;62792;46.236;6.040;2023-09-30T16:40:53;26.60;57.80
74359;DHT22;62792;46.236;6.040;2023-09-30T16:46:00;26.50;57.90
74359;DHT22;62792;46.236;6.040;2023-09-30T16:51:07;26.30;58.90
74359;DHT22;62792;46.236;6.040;2023-09-30T16:56:10;26.30;59.30
74359;DHT22;62792;46.236;6.040;2023-09-30T17:01:16;26.20;59.50
74359;DHT22;62792;46.236;6.040;2023-09-30T17:06:19;26.00;59.50
74359;DHT22;62792;46.236;6.040;2023-09-30T17:11:22;26.00;59.70
74359;DHT22;62792;46.236;6.040;2023-09-30T17:16:27;26.00;59.80
74359;DHT22;62792;46.236;6.040;2023-09-30T17:21:30;25.90;59.80
74359;DHT22;62792;46.236;6.040;2023-09-30T17:26:33;25.90;60.10
74359;DHT22;62792;46.236;6.040;2023-09-30T17:31:37;25.80;60.10
74359;DHT22;62792;46.236;6.040;2023-09-30T17:36:40;25.70;60.20
74359;DHT22;62792;46.236;6.040;2023-09-30T17:41:44;25.70;60.20
74359;DHT22;62792;46.236;6.040;2023-09-30T17:46:48;25.70;60.40
74359;DHT22;62792;46.236;6.040;2023-09-30T17:51:52;25.60;60.70
74359;DHT22;62792;46.236;6.040;2023-09-30T17:56:54;25.60;60.60
74359;DHT22;62792;46.236;6.040;2023-09-30T18:01:59;25.50;60.80
74359;DHT22;62792;46.236;6.040;2023-09-30T18:07:02;25.50;61.00
74359;DHT22;62792;46.236;6.040;2023-09-30T18:12:05;25.40;60.90
74359;DHT22;62792;46.236;6.040;2023-09-30T18:17:11;25.40;61.10
74359;DHT22;62792;46.236;6.040;2023-09-30T18:22:14;25.40;61.20
74359;DHT22;62792;46.236;6.040;2023-09-30T18:27:17;25.40;61.20
74359;DHT22;62792;46.236;6.040;2023-09-30T18:32:22;25.30;61.20
74359;DHT22;62792;46.236;6.040;2023-09-30T18:37:25;25.30;61.30
74359;DHT22;62792;46.236;6.040;2023-09-30T18:42:29;25.30;61.60
74359;DHT22;62792;46.236;6.040;2023-09-30T18:47:35;25.20;61.60
74359;DHT22;62792;46.236;6.040;2023-09-30T18:52:38;25.20;61.40
74359;DHT22;62792;46.236;6.040;2023-09-30T18:57:41;25.20;61.40
74359;DHT22;62792;46.236;6.040;2023-09-30T19:02:45;25.10;61.90
74359;DHT22;62792;46.236;6.040;2023-09-30T19:07:48;25.10;61.70
74359;DHT22;62792;46.236;6.040;2023-09-30T19:12:51;25.10;61.70
74359;DHT22;62792;46.236;6.040;2023-09-30T19:17:55;25.00;61.90
74359;DHT22;62792;46.236;6.040;2023-09-30T19:22:58;25.10;61.90
74359;DHT22;62792;46.236;6.040;2023-09-30T19:28:01;25.10;62.10
74359;DHT22;62792;46.236;6.040;2023-09-30T19:33:06;25.00;62.10
74359;DHT22;62792;46.236;6.040;2023-09-30T19:38:09;25.00;62.20
74359;DHT22;62792;46.236;6.040;2023-09-30T19:43:12;25.00;62.10
74359;DHT22;62792;46.236;6.040;2023-09-30T19:48:16;25.00;62.30
74359;DHT22;62792;46.236;6.040;2023-09-30T19:53:19;24.80;62.20
74359;DHT22;62792;46.236;6.040;2023-09-30T19:58:22;24.90;62.30
74359;DHT22;62792;46.236;6.040;2023-09-30T20:03:27;24.80;62.50
74359;DHT22;62792;46.236;6.040;2023-09-30T20:08:30;24.90;62.40
74359;DHT22;62792;46.236;6.040;2023-09-30T20:13:35;24.80;62.20
74359;DHT22;62792;46.236;6.040;2023-09-30T20:18:39;24.80;62.60
74359;DHT22;62792;46.236;6.040;2023-09-30T20:23:43;24.80;62.60
74359;DHT22;62792;46.236;6.040;2023-09-30T20:28:46;24.80;62.70
74359;DHT22;62792;46.236;6.040;2023-09-30T20:33:51;24.80;62.50
74359;DHT22;62792;46.236;6.040;2023-09-30T20:38:54;24.80;62.80
74359;DHT22;62792;46.236;6.040;2023-09-30T20:43:58;24.80;62.40
74359;DHT22;62792;46.236;6.040;2023-09-30T20:49:02;24.70;62.70
74359;DHT22;62792;46.236;6.040;2023-09-30T20:54:06;24.80;62.80
74359;DHT22;62792;46.236;6.040;2023-09-30T20:59:09;24.70;62.70
74359;DHT22;62792;46.236;6.040;2023-09-30T21:04:14;24.70;62.60
74359;DHT22;62792;46.236;6.040;2023-09-30T21:09:18;24.60;62.70
74359;DHT22;62792;46.236;6.040;2023-09-30T21:14:20;24.60;62.70
74359;DHT22;62792;46.236;6.040;2023-09-30T21:19:26;24.70;62.70
74359;DHT22;62792;46.236;6.040;2023-09-30T21:24:29;24.60;62.90
74359;DHT22;62792;46.236;6.040;2023-09-30T21:29:32;24.60;62.80
74359;DHT22;62792;46.236;6.040;2023-09-30T21:34:36;24.60;62.90
74359;DHT22;62792;46.236;6.040;2023-09-30T21:39:39;24.60;62.80
74359;DHT22;62792;46.236;6.040;2023-09-30T21:44:42;24.60;62.90
74359;DHT22;62792;46.236;6.040;2023-09-30T21:49:46;24.50;62.80
74359;DHT22;62792;46.236;6.040;2023-09-30T21:54:49;24.50;62.60
74359;DHT22;62792;46.236;6.040;2023-09-30T21:59:52;24.60;62.90
74359;DHT22;62792;46.236;6.040;2023-09-30T22:04:57;24.60;62.80
74359;DHT22;62792;46.236;6.040;2023-09-30T22:10:00;24.50;62.90
74359;DHT22;62792;46.236;6.040;2023-09-30T22:15:06;24.60;62.60
74359;DHT22;62792;46.236;6.040;2023-09-30T22:20:11;24.50;62.90
74359;DHT22;62792;46.236;6.040;2023-09-30T22:25:14;24.50;62.80
74359;DHT22;62792;46.236;6.040;2023-09-30T22:30:18;24.50;62.70
74359;DHT22;62792;46.236;6.040;2023-09-30T22:35:22;24.50;62.80
74359;DHT22;62792;46.236;6.040;2023-09-30T22:40:25;24.50;62.90
74359;DHT22;62792;46.236;6.040;2023-09-30T22:45:28;24.40;62.80
74359;DHT22;62792;46.236;6.040;2023-09-30T22:50:32;24.50;62.80
74359;DHT22;62792;46.236;6.040;2023-09-30T22:55:36;24.40;62.90
74359;DHT22;62792;46.236;6.040;2023-09-30T23:00:39;24.40;62.70
74359;DHT22;62792;46.236;6.040;2023-09-30T23:05:44;24.40;62.80
74359;DHT22;62792;46.236;6.040;2023-09-30T23:10:46;24.40;62.90
74359;DHT22;62792;46.236;6.040;2023-09-30T23:15:49;24.50;62.80
74359;DHT22;62792;46.236;6.040;2023-09-30T23:20:55;24.40;62.60
74359;DHT22;62792;46.236;6.040;2023-09-30T23:25:58;24.40;62.90
74359;DHT22;62792;46.236;6.040;2023-09-30T23:31:02;24.40;62.60
74359;DHT22;62792;46.236;6.040;2023-09-30T23:36:10;24.40;62.70
74359;DHT22;62792;46.236;6.040;2023-09-30T23:41:13;24.40;62.80
74359;DHT22;62792;46.236;6.040;2023-09-30T23:46:16;24.40;62.70
74359;DHT22;62792;46.236;6.040;2023-09-30T23:51:22;24.40;62.50
74359;DHT22;62792;46.236;6.040;2023-09-30T23:56:25;24.30;62.80
